sensor_id;sensor_type;location;lat;lon;timestamp;P1;durP1;ratioP1;P2;durP2;ratioP2
71423;SDS011;59240;51.370;-0.486;2023-09-19T00:03:19;7.60;;;1.20;;
71423;SDS011;59240;51.370;-0.486;2023-09-19T00:08:16;8.45;;;1.35;;
71423;SDS011;59240;51.370;-0.486;2023-09-19T00:13:13;7.72;;;1.35;;
71423;SDS011;59240;51.370;-0.486;2023-09-19T00:18:12;5.32;;;1.30;;
71423;SDS011;59240;51.370;-0.486;2023-09-19T00:23:09;8.38;;;1.27;;
71423;SDS011;59240;51.370;-0.486;2023-09-19T00:28:06;10.63;;;1.65;;
71423;SDS011;59240;51.370;-0.486;2023-09-19T00:33:04;4.75;;;1.10;;
71423;SDS011;59240;51.370;-0.486;2023-09-19T00:38:03;6.18;;;1.48;;
71423;SDS011;59240;51.370;-0.486;2023-09-19T00:43:00;4.55;;;1.27;;
71423;SDS011;59240;51.370;-0.486;2023-09-19T00:47:57;5.82;;;1.38;;
71423;SDS011;59240;51.370;-0.486;2023-09-19T00:52:54;10.15;;;1.20;;
71423;SDS011;59240;51.370;-0.486;2023-09-19T00:57:55;8.75;;;1.60;;
71423;SDS011;59240;51.370;-0.486;2023-09-19T01:02:53;8.75;;;1.45;;
71423;SDS011;59240;51.370;-0.486;2023-09-19T01:07:51;7.40;;;1.85;;
71423;SDS011;59240;51.370;-0.486;2023-09-19T01:28:27;4.15;;;1.27;;
71423;SDS011;59240;51.370;-0.486;2023-09-19T01:34:07;8.18;;;1.40;;
71423;SDS011;59240;51.370;-0.486;2023-09-19T01:38:57;10.13;;;1.40;;
71423;SDS011;59240;51.370;-0.486;2023-09-19T01:44:02;11.93;;;1.50;;
71423;SDS011;59240;51.370;-0.486;2023-09-19T01:54:29;11.93;;;1.98;;
71423;SDS011;59240;51.370;-0.486;2023-09-19T01:59:31;10.73;;;1.77;;
71423;SDS011;59240;51.370;-0.486;2023-09-19T02:04:33;9.77;;;2.78;;
71423;SDS011;59240;51.370;-0.486;2023-09-19T02:09:31;16.20;;;2.35;;
71423;SDS011;59240;51.370;-0.486;2023-09-19T02:14:31;11.77;;;1.80;;
71423;SDS011;59240;51.370;-0.486;2023-09-19T02:19:29;10.20;;;1.73;;
71423;SDS011;59240;51.370;-0.486;2023-09-19T02:24:27;6.28;;;1.02;;
71423;SDS011;59240;51.370;-0.486;2023-09-19T02:29:24;14.60;;;2.33;;
71423;SDS011;59240;51.370;-0.486;2023-09-19T02:34:21;5.78;;;2.13;;
71423;SDS011;59240;51.370;-0.486;2023-09-19T02:39:18;9.48;;;1.52;;
71423;SDS011;59240;51.370;-0.486;2023-09-19T02:44:15;15.88;;;2.03;;
71423;SDS011;59240;51.370;-0.486;2023-09-19T02:49:12;7.18;;;1.52;;
71423;SDS011;59240;51.370;-0.486;2023-09-19T02:54:10;5.55;;;1.58;;
71423;SDS011;59240;51.370;-0.486;2023-09-19T02:59:07;10.30;;;1.88;;
71423;SDS011;59240;51.370;-0.486;2023-09-19T03:04:06;5.15;;;1.25;;
71423;SDS011;59240;51.370;-0.486;2023-09-19T03:09:04;10.18;;;1.70;;
71423;SDS011;59240;51.370;-0.486;2023-09-19T03:14:04;4.30;;;1.30;;
71423;SDS011;59240;51.370;-0.486;2023-09-19T03:19:01;12.50;;;1.70;;
71423;SDS011;59240;51.370;-0.486;2023-09-19T03:23:57;5.55;;;1.00;;
71423;SDS011;59240;51.370;-0.486;2023-09-19T03:28:54;8.18;;;2.03;;
71423;SDS011;59240;51.370;-0.486;2023-09-19T03:33:51;8.52;;;1.00;;
71423;SDS011;59240;51.370;-0.486;2023-09-19T03:38:48;5.78;;;1.08;;
71423;SDS011;59240;51.370;-0.486;2023-09-19T03:43:45;9.30;;;1.50;;
71423;SDS011;59240;51.370;-0.486;2023-09-19T03:48:42;8.90;;;1.13;;
71423;SDS011;59240;51.370;-0.486;2023-09-19T03:53:39;7.68;;;1.75;;
71423;SDS011;59240;51.370;-0.486;2023-09-19T03:58:36;11.93;;;1.75;;
71423;SDS011;59240;51.370;-0.486;2023-09-19T04:03:36;12.02;;;2.15;;
71423;SDS011;59240;51.370;-0.486;2023-09-19T04:08:43;8.90;;;1.13;;
71423;SDS011;59240;51.370;-0.486;2023-09-19T04:13:41;7.47;;;1.58;;
71423;SDS011;59240;51.370;-0.486;2023-09-19T04:18:38;11.30;;;1.10;;
71423;SDS011;59240;51.370;-0.486;2023-09-19T04:23:36;11.23;;;1.85;;
71423;SDS011;59240;51.370;-0.486;2023-09-19T04:28:34;10.77;;;1.15;;
71423;SDS011;59240;51.370;-0.486;2023-09-19T04:33:32;6.68;;;1.30;;
71423;SDS011;59240;51.370;-0.486;2023-09-19T04:38:31;4.60;;;1.27;;
71423;SDS011;59240;51.370;-0.486;2023-09-19T04:43:29;7.47;;;1.67;;
71423;SDS011;59240;51.370;-0.486;2023-09-19T04:48:26;13.00;;;1.58;;
71423;SDS011;59240;51.370;-0.486;2023-09-19T04:53:22;5.97;;;1.17;;
71423;SDS011;59240;51.370;-0.486;2023-09-19T04:58:19;8.68;;;1.08;;
71423;SDS011;59240;51.370;-0.486;2023-09-19T05:03:16;6.13;;;1.08;;
71423;SDS011;59240;51.370;-0.486;2023-09-19T05:08:14;9.20;;;0.90;;
71423;SDS011;59240;51.370;-0.486;2023-09-19T05:13:11;5.05;;;1.23;;
71423;SDS011;59240;51.370;-0.486;2023-09-19T05:18:08;8.30;;;1.65;;
71423;SDS011;59240;51.370;-0.486;2023-09-19T05:23:06;7.47;;;1.52;;
71423;SDS011;59240;51.370;-0.486;2023-09-19T05:28:09;5.85;;;1.35;;
71423;SDS011;59240;51.370;-0.486;2023-09-19T05:33:11;6.72;;;1.48;;
71423;SDS011;59240;51.370;-0.486;2023-09-19T05:38:08;8.95;;;1.35;;
71423;SDS011;59240;51.370;-0.486;2023-09-19T05:43:10;8.25;;;1.40;;
71423;SDS011;59240;51.370;-0.486;2023-09-19T05:48:11;8.57;;;1.60;;
71423;SDS011;59240;51.370;-0.486;2023-09-19T05:53:10;10.55;;;1.17;;
71423;SDS011;59240;51.370;-0.486;2023-09-19T05:58:11;6.45;;;1.02;;
71423;SDS011;59240;51.370;-0.486;2023-09-19T06:03:11;10.18;;;1.33;;
71423;SDS011;59240;51.370;-0.486;2023-09-19T06:08:08;10.50;;;1.77;;
71423;SDS011;59240;51.370;-0.486;2023-09-19T06:13:05;7.15;;;1.25;;
71423;SDS011;59240;51.370;-0.486;2023-09-19T06:18:02;5.43;;;1.20;;
71423;SDS011;59240;51.370;-0.486;2023-09-19T06:23:02;6.47;;;1.15;;
71423;SDS011;59240;51.370;-0.486;2023-09-19T06:27:59;7.93;;;1.20;;
71423;SDS011;59240;51.370;-0.486;2023-09-19T06:32:56;9.27;;;1.65;;
71423;SDS011;59240;51.370;-0.486;2023-09-19T06:37:53;2.70;;;1.17;;
71423;SDS011;59240;51.370;-0.486;2023-09-19T06:42:51;4.45;;;0.90;;
71423;SDS011;59240;51.370;-0.486;2023-09-19T06:47:49;9.50;;;1.17;;
71423;SDS011;59240;51.370;-0.486;2023-09-19T06:52:49;5.85;;;1.50;;
71423;SDS011;59240;51.370;-0.486;2023-09-19T06:57:50;6.35;;;1.00;;
71423;SDS011;59240;51.370;-0.486;2023-09-19T07:02:57;3.40;;;0.95;;
71423;SDS011;59240;51.370;-0.486;2023-09-19T07:08:07;2.95;;;1.10;;
71423;SDS011;59240;51.370;-0.486;2023-09-19T07:13:07;7.30;;;1.33;;
71423;SDS011;59240;51.370;-0.486;2023-09-19T07:18:07;7.20;;;1.23;;
71423;SDS011;59240;51.370;-0.486;2023-09-19T07:23:07;8.88;;;1.40;;
71423;SDS011;59240;51.370;-0.486;2023-09-19T07:28:05;3.67;;;1.08;;
71423;SDS011;59240;51.370;-0.486;2023-09-19T07:33:03;8.45;;;1.42;;
71423;SDS011;59240;51.370;-0.486;2023-09-19T07:38:01;8.18;;;2.00;;
71423;SDS011;59240;51.370;-0.486;2023-09-19T07:42:58;9.45;;;1.77;;
71423;SDS011;59240;51.370;-0.486;2023-09-19T07:47:58;6.45;;;1.50;;
71423;SDS011;59240;51.370;-0.486;2023-09-19T07:53:01;7.95;;;1.80;;
71423;SDS011;59240;51.370;-0.486;2023-09-19T07:58:01;5.72;;;1.85;;
71423;SDS011;59240;51.370;-0.486;2023-09-19T08:03:01;10.40;;;2.10;;
71423;SDS011;59240;51.370;-0.486;2023-09-19T08:08:08;14.27;;;2.45;;
71423;SDS011;59240;51.370;-0.486;2023-09-19T08:13:05;6.15;;;1.70;;
71423;SDS011;59240;51.370;-0.486;2023-09-19T08:18:02;13.30;;;2.13;;
71423;SDS011;59240;51.370;-0.486;2023-09-19T08:23:02;8.77;;;2.00;;
71423;SDS011;59240;51.370;-0.486;2023-09-19T08:28:00;5.78;;;1.98;;
71423;SDS011;59240;51.370;-0.486;2023-09-19T08:32:58;7.82;;;2.40;;
71423;SDS011;59240;51.370;-0.486;2023-09-19T08:37:59;5.82;;;2.20;;
71423;SDS011;59240;51.370;-0.486;2023-09-19T08:43:00;7.22;;;2.40;;
71423;SDS011;59240;51.370;-0.486;2023-09-19T08:53:27;12.40;;;3.05;;
71423;SDS011;59240;51.370;-0.486;2023-09-19T08:58:31;7.93;;;2.50;;
71423;SDS011;59240;51.370;-0.486;2023-09-19T09:03:37;10.90;;;2.63;;
71423;SDS011;59240;51.370;-0.486;2023-09-19T09:08:37;8.50;;;2.58;;
71423;SDS011;59240;51.370;-0.486;2023-09-19T09:13:36;11.60;;;2.40;;
71423;SDS011;59240;51.370;-0.486;2023-09-19T09:18:34;14.43;;;2.67;;
71423;SDS011;59240;51.370;-0.486;2023-09-19T09:23:31;16.70;;;2.58;;
71423;SDS011;59240;51.370;-0.486;2023-09-19T09:28:30;20.98;;;3.28;;
71423;SDS011;59240;51.370;-0.486;2023-09-19T09:33:28;14.57;;;2.53;;
71423;SDS011;59240;51.370;-0.486;2023-09-19T09:38:29;10.32;;;2.38;;
71423;SDS011;59240;51.370;-0.486;2023-09-19T09:43:40;12.95;;;3.65;;
71423;SDS011;59240;51.370;-0.486;2023-09-19T09:48:38;13.73;;;2.75;;
71423;SDS011;59240;51.370;-0.486;2023-09-19T09:53:36;14.88;;;3.10;;
71423;SDS011;59240;51.370;-0.486;2023-09-19T09:58:35;10.48;;;3.35;;
71423;SDS011;59240;51.370;-0.486;2023-09-19T10:03:37;16.52;;;3.33;;
71423;SDS011;59240;51.370;-0.486;2023-09-19T10:09:04;19.58;;;3.65;;
71423;SDS011;59240;51.370;-0.486;2023-09-19T10:14:09;13.40;;;3.22;;
71423;SDS011;59240;51.370;-0.486;2023-09-19T10:19:09;15.40;;;3.05;;
71423;SDS011;59240;51.370;-0.486;2023-09-19T10:24:06;11.57;;;2.67;;
71423;SDS011;59240;51.370;-0.486;2023-09-19T10:29:06;16.67;;;3.03;;
71423;SDS011;59240;51.370;-0.486;2023-09-19T10:34:04;15.45;;;3.17;;
71423;SDS011;59240;51.370;-0.486;2023-09-19T10:39:02;15.35;;;2.85;;
71423;SDS011;59240;51.370;-0.486;2023-09-19T10:44:05;11.77;;;2.42;;
71423;SDS011;59240;51.370;-0.486;2023-09-19T10:49:03;9.70;;;2.25;;
71423;SDS011;59240;51.370;-0.486;2023-09-19T10:54:13;6.80;;;1.65;;
71423;SDS011;59240;51.370;-0.486;2023-09-19T10:59:15;11.68;;;2.65;;
71423;SDS011;59240;51.370;-0.486;2023-09-19T11:04:26;8.25;;;2.78;;
71423;SDS011;59240;51.370;-0.486;2023-09-19T11:09:42;8.35;;;2.90;;
71423;SDS011;59240;51.370;-0.486;2023-09-19T11:14:40;11.40;;;2.78;;
71423;SDS011;59240;51.370;-0.486;2023-09-19T11:30:47;11.52;;;2.17;;
71423;SDS011;59240;51.370;-0.486;2023-09-19T11:35:58;2.55;;;1.13;;
71423;SDS011;59240;51.370;-0.486;2023-09-19T11:46:17;9.45;;;2.35;;
71423;SDS011;59240;51.370;-0.486;2023-09-19T11:51:24;5.50;;;1.63;;
71423;SDS011;59240;51.370;-0.486;2023-09-19T11:56:25;12.48;;;1.88;;
71423;SDS011;59240;51.370;-0.486;2023-09-19T12:01:25;8.27;;;2.15;;
71423;SDS011;59240;51.370;-0.486;2023-09-19T12:06:26;8.23;;;1.88;;
71423;SDS011;59240;51.370;-0.486;2023-09-19T12:11:29;9.60;;;2.42;;
71423;SDS011;59240;51.370;-0.486;2023-09-19T12:16:32;8.85;;;2.60;;
71423;SDS011;59240;51.370;-0.486;2023-09-19T12:21:31;12.02;;;2.55;;
71423;SDS011;59240;51.370;-0.486;2023-09-19T12:26:28;7.13;;;1.95;;
71423;SDS011;59240;51.370;-0.486;2023-09-19T12:31:25;5.57;;;1.85;;
71423;SDS011;59240;51.370;-0.486;2023-09-19T12:36:23;7.35;;;2.20;;
71423;SDS011;59240;51.370;-0.486;2023-09-19T12:41:27;11.65;;;1.40;;
71423;SDS011;59240;51.370;-0.486;2023-09-19T12:46:24;5.97;;;1.60;;
71423;SDS011;59240;51.370;-0.486;2023-09-19T12:51:22;6.93;;;2.08;;
71423;SDS011;59240;51.370;-0.486;2023-09-19T12:56:21;5.10;;;1.73;;
71423;SDS011;59240;51.370;-0.486;2023-09-19T13:01:20;8.35;;;1.88;;
71423;SDS011;59240;51.370;-0.486;2023-09-19T13:06:34;10.93;;;2.58;;
71423;SDS011;59240;51.370;-0.486;2023-09-19T13:11:38;6.75;;;2.10;;
71423;SDS011;59240;51.370;-0.486;2023-09-19T13:27:42;4.18;;;1.40;;
71423;SDS011;59240;51.370;-0.486;2023-09-19T13:32:41;7.90;;;2.00;;
71423;SDS011;59240;51.370;-0.486;2023-09-19T13:37:40;6.78;;;1.77;;
71423;SDS011;59240;51.370;-0.486;2023-09-19T13:42:40;10.93;;;1.98;;
71423;SDS011;59240;51.370;-0.486;2023-09-19T13:47:38;7.45;;;2.17;;
71423;SDS011;59240;51.370;-0.486;2023-09-19T13:52:35;6.43;;;1.95;;
71423;SDS011;59240;51.370;-0.486;2023-09-19T13:57:33;6.80;;;1.98;;
71423;SDS011;59240;51.370;-0.486;2023-09-19T14:02:30;5.30;;;1.45;;
71423;SDS011;59240;51.370;-0.486;2023-09-19T14:07:28;7.43;;;1.73;;
71423;SDS011;59240;51.370;-0.486;2023-09-19T14:12:25;4.70;;;1.65;;
71423;SDS011;59240;51.370;-0.486;2023-09-19T14:17:22;6.40;;;1.50;;
71423;SDS011;59240;51.370;-0.486;2023-09-19T14:22:20;4.35;;;1.75;;
71423;SDS011;59240;51.370;-0.486;2023-09-19T14:27:17;5.55;;;1.50;;
71423;SDS011;59240;51.370;-0.486;2023-09-19T14:32:14;4.63;;;1.30;;
71423;SDS011;59240;51.370;-0.486;2023-09-19T14:37:11;4.85;;;1.58;;
71423;SDS011;59240;51.370;-0.486;2023-09-19T14:42:08;9.27;;;1.58;;
71423;SDS011;59240;51.370;-0.486;2023-09-19T14:47:05;8.13;;;1.33;;
71423;SDS011;59240;51.370;-0.486;2023-09-19T14:52:03;4.32;;;1.13;;
71423;SDS011;59240;51.370;-0.486;2023-09-19T14:57:01;3.55;;;1.45;;
71423;SDS011;59240;51.370;-0.486;2023-09-19T15:02:00;5.50;;;1.42;;
71423;SDS011;59240;51.370;-0.486;2023-09-19T15:06:58;3.70;;;1.60;;
71423;SDS011;59240;51.370;-0.486;2023-09-19T15:11:55;4.85;;;1.52;;
71423;SDS011;59240;51.370;-0.486;2023-09-19T15:16:52;9.90;;;1.58;;
71423;SDS011;59240;51.370;-0.486;2023-09-19T15:21:49;5.63;;;1.30;;
71423;SDS011;59240;51.370;-0.486;2023-09-19T15:26:46;4.93;;;1.13;;
71423;SDS011;59240;51.370;-0.486;2023-09-19T15:31:54;7.05;;;1.77;;
71423;SDS011;59240;51.370;-0.486;2023-09-19T15:36:54;6.88;;;1.40;;
71423;SDS011;59240;51.370;-0.486;2023-09-19T15:41:51;5.88;;;2.00;;
71423;SDS011;59240;51.370;-0.486;2023-09-19T15:46:48;7.97;;;2.35;;
71423;SDS011;59240;51.370;-0.486;2023-09-19T15:51:45;4.93;;;1.60;;
71423;SDS011;59240;51.370;-0.486;2023-09-19T15:56:42;7.28;;;2.33;;
71423;SDS011;59240;51.370;-0.486;2023-09-19T16:01:41;5.65;;;1.65;;
71423;SDS011;59240;51.370;-0.486;2023-09-19T16:06:40;6.13;;;1.63;;
71423;SDS011;59240;51.370;-0.486;2023-09-19T16:11:37;8.75;;;1.98;;
71423;SDS011;59240;51.370;-0.486;2023-09-19T16:16:34;10.85;;;2.88;;
71423;SDS011;59240;51.370;-0.486;2023-09-19T16:21:33;9.38;;;2.25;;
71423;SDS011;59240;51.370;-0.486;2023-09-19T16:26:33;16.98;;;2.80;;
71423;SDS011;59240;51.370;-0.486;2023-09-19T16:31:30;12.70;;;2.53;;
71423;SDS011;59240;51.370;-0.486;2023-09-19T16:36:29;9.90;;;2.58;;
71423;SDS011;59240;51.370;-0.486;2023-09-19T16:41:28;11.13;;;3.00;;
71423;SDS011;59240;51.370;-0.486;2023-09-19T16:46:25;17.40;;;2.90;;
71423;SDS011;59240;51.370;-0.486;2023-09-19T16:51:22;11.73;;;2.42;;
71423;SDS011;59240;51.370;-0.486;2023-09-19T16:56:20;10.07;;;2.25;;
71423;SDS011;59240;51.370;-0.486;2023-09-19T17:01:17;7.22;;;1.88;;
71423;SDS011;59240;51.370;-0.486;2023-09-19T17:06:17;7.38;;;2.55;;
71423;SDS011;59240;51.370;-0.486;2023-09-19T17:11:17;11.63;;;1.85;;
71423;SDS011;59240;51.370;-0.486;2023-09-19T17:16:16;9.57;;;2.40;;
71423;SDS011;59240;51.370;-0.486;2023-09-19T17:21:18;6.43;;;1.83;;
71423;SDS011;59240;51.370;-0.486;2023-09-19T17:26:17;3.35;;;1.40;;
71423;SDS011;59240;51.370;-0.486;2023-09-19T17:31:16;9.40;;;1.55;;
71423;SDS011;59240;51.370;-0.486;2023-09-19T17:36:23;8.38;;;1.90;;
71423;SDS011;59240;51.370;-0.486;2023-09-19T17:41:21;8.13;;;1.95;;
71423;SDS011;59240;51.370;-0.486;2023-09-19T17:46:19;10.80;;;2.47;;
71423;SDS011;59240;51.370;-0.486;2023-09-19T17:51:17;6.68;;;1.70;;
71423;SDS011;59240;51.370;-0.486;2023-09-19T17:56:15;8.40;;;1.80;;
71423;SDS011;59240;51.370;-0.486;2023-09-19T18:01:16;5.18;;;1.45;;
71423;SDS011;59240;51.370;-0.486;2023-09-19T18:06:16;11.25;;;2.53;;
71423;SDS011;59240;51.370;-0.486;2023-09-19T18:11:16;7.68;;;1.70;;
71423;SDS011;59240;51.370;-0.486;2023-09-19T18:16:14;8.55;;;1.30;;
71423;SDS011;59240;51.370;-0.486;2023-09-19T18:21:13;10.25;;;1.50;;
71423;SDS011;59240;51.370;-0.486;2023-09-19T18:26:10;8.10;;;1.67;;
71423;SDS011;59240;51.370;-0.486;2023-09-19T18:31:07;5.97;;;1.67;;
71423;SDS011;59240;51.370;-0.486;2023-09-19T18:36:05;9.50;;;1.52;;
71423;SDS011;59240;51.370;-0.486;2023-09-19T18:46:05;8.60;;;1.40;;
71423;SDS011;59240;51.370;-0.486;2023-09-19T18:51:06;2.67;;;1.23;;
71423;SDS011;59240;51.370;-0.486;2023-09-19T19:01:13;7.32;;;1.50;;
71423;SDS011;59240;51.370;-0.486;2023-09-19T19:06:15;8.57;;;1.30;;
71423;SDS011;59240;51.370;-0.486;2023-09-19T19:11:13;2.88;;;1.10;;
71423;SDS011;59240;51.370;-0.486;2023-09-19T19:16:14;5.60;;;1.23;;
71423;SDS011;59240;51.370;-0.486;2023-09-19T19:21:12;6.80;;;1.67;;
71423;SDS011;59240;51.370;-0.486;2023-09-19T19:26:13;8.02;;;1.17;;
71423;SDS011;59240;51.370;-0.486;2023-09-19T19:31:14;7.40;;;1.67;;
71423;SDS011;59240;51.370;-0.486;2023-09-19T19:36:14;5.32;;;1.05;;
71423;SDS011;59240;51.370;-0.486;2023-09-19T19:41:14;3.17;;;1.13;;
71423;SDS011;59240;51.370;-0.486;2023-09-19T19:46:12;6.65;;;2.17;;
71423;SDS011;59240;51.370;-0.486;2023-09-19T19:51:11;6.20;;;1.13;;
71423;SDS011;59240;51.370;-0.486;2023-09-19T19:56:10;4.28;;;1.60;;
71423;SDS011;59240;51.370;-0.486;2023-09-19T20:01:07;6.00;;;1.33;;
71423;SDS011;59240;51.370;-0.486;2023-09-19T20:06:08;6.70;;;1.30;;
71423;SDS011;59240;51.370;-0.486;2023-09-19T20:11:05;3.63;;;1.52;;
71423;SDS011;59240;51.370;-0.486;2023-09-19T20:16:04;4.72;;;0.95;;
71423;SDS011;59240;51.370;-0.486;2023-09-19T20:21:05;6.35;;;1.02;;
71423;SDS011;59240;51.370;-0.486;2023-09-19T20:26:10;5.18;;;1.25;;
71423;SDS011;59240;51.370;-0.486;2023-09-19T20:31:09;6.22;;;1.60;;
71423;SDS011;59240;51.370;-0.486;2023-09-19T20:36:08;6.28;;;1.73;;
71423;SDS011;59240;51.370;-0.486;2023-09-19T20:41:07;7.80;;;1.38;;
71423;SDS011;59240;51.370;-0.486;2023-09-19T20:46:04;5.05;;;1.52;;
71423;SDS011;59240;51.370;-0.486;2023-09-19T20:51:07;7.40;;;1.52;;
71423;SDS011;59240;51.370;-0.486;2023-09-19T20:56:13;5.10;;;1.20;;
71423;SDS011;59240;51.370;-0.486;2023-09-19T21:01:18;8.13;;;1.38;;
71423;SDS011;59240;51.370;-0.486;2023-09-19T21:06:16;10.18;;;1.55;;
71423;SDS011;59240;51.370;-0.486;2023-09-19T21:11:17;9.88;;;1.40;;
71423;SDS011;59240;51.370;-0.486;2023-09-19T21:16:16;6.65;;;1.30;;
71423;SDS011;59240;51.370;-0.486;2023-09-19T21:21:14;4.10;;;1.45;;
71423;SDS011;59240;51.370;-0.486;2023-09-19T21:26:11;8.85;;;1.55;;
71423;SDS011;59240;51.370;-0.486;2023-09-19T21:31:09;4.90;;;0.85;;
71423;SDS011;59240;51.370;-0.486;2023-09-19T21:36:06;7.55;;;1.42;;
71423;SDS011;59240;51.370;-0.486;2023-09-19T21:41:09;3.75;;;1.75;;
71423;SDS011;59240;51.370;-0.486;2023-09-19T21:46:08;8.30;;;1.83;;
71423;SDS011;59240;51.370;-0.486;2023-09-19T21:51:06;6.80;;;1.70;;
71423;SDS011;59240;51.370;-0.486;2023-09-19T21:56:04;7.20;;;1.65;;
71423;SDS011;59240;51.370;-0.486;2023-09-19T22:01:01;5.50;;;1.10;;
71423;SDS011;59240;51.370;-0.486;2023-09-19T22:06:05;4.63;;;1.40;;
71423;SDS011;59240;51.370;-0.486;2023-09-19T22:11:06;8.25;;;1.17;;
71423;SDS011;59240;51.370;-0.486;2023-09-19T22:16:08;5.88;;;1.38;;
71423;SDS011;59240;51.370;-0.486;2023-09-19T22:21:11;7.03;;;2.28;;
71423;SDS011;59240;51.370;-0.486;2023-09-19T22:26:29;5.70;;;1.58;;
71423;SDS011;59240;51.370;-0.486;2023-09-19T22:31:26;4.47;;;1.42;;
71423;SDS011;59240;51.370;-0.486;2023-09-19T22:36:38;4.07;;;1.80;;
71423;SDS011;59240;51.370;-0.486;2023-09-19T22:41:40;3.08;;;1.45;;
71423;SDS011;59240;51.370;-0.486;2023-09-19T22:46:37;5.72;;;1.65;;
71423;SDS011;59240;51.370;-0.486;2023-09-19T22:51:34;7.25;;;1.67;;
71423;SDS011;59240;51.370;-0.486;2023-09-19T22:56:34;8.07;;;1.50;;
71423;SDS011;59240;51.370;-0.486;2023-09-19T23:01:32;4.78;;;1.92;;
71423;SDS011;59240;51.370;-0.486;2023-09-19T23:06:30;7.32;;;1.92;;
71423;SDS011;59240;51.370;-0.486;2023-09-19T23:11:37;3.80;;;1.45;;
71423;SDS011;59240;51.370;-0.486;2023-09-19T23:16:36;4.80;;;1.73;;
71423;SDS011;59240;51.370;-0.486;2023-09-19T23:21:36;5.63;;;2.50;;
71423;SDS011;59240;51.370;-0.486;2023-09-19T23:26:41;7.03;;;1.55;;
71423;SDS011;59240;51.370;-0.486;2023-09-19T23:36:40;7.80;;;1.95;;
71423;SDS011;59240;51.370;-0.486;2023-09-19T23:41:38;4.72;;;1.73;;
71423;SDS011;59240;51.370;-0.486;2023-09-19T23:46:35;4.30;;;1.60;;
71423;SDS011;59240;51.370;-0.486;2023-09-19T23:51:36;7.97;;;1.75;;
71423;SDS011;59240;51.370;-0.486;2023-09-19T23:56:34;6.55;;;1.50;;
